createdAt,value
2022-09-15T00:00:55.609Z,2.25
2022-09-15T00:03:23.026Z,2.30
2022-09-15T00:05:49.718Z,2.90
2022-09-15T00:08:16.269Z,4.00
2022-09-15T00:11:10.106Z,3.05
2022-09-15T00:13:37.645Z,2.33
2022-09-15T00:16:04.886Z,2.55
2022-09-15T00:18:31.628Z,3.17
2022-09-15T00:20:58.113Z,3.47
2022-09-15T00:23:24.459Z,3.45
2022-09-15T00:25:52.595Z,3.45
2022-09-15T00:28:20.982Z,3.08
2022-09-15T00:30:51.089Z,3.50
2022-09-15T00:33:18.165Z,4.00
2022-09-15T00:35:47.901Z,2.95
2022-09-15T00:38:15.081Z,3.72
2022-09-15T00:40:50.056Z,4.13
2022-09-15T00:43:18.246Z,3.47
2022-09-15T00:45:44.929Z,3.20
2022-09-15T00:48:17.983Z,2.85
2022-09-15T00:50:47.386Z,3.42
2022-09-15T00:53:14.618Z,4.47
2022-09-15T00:55:47.255Z,4.50
2022-09-15T00:58:20.931Z,4.43
2022-09-15T01:00:55.243Z,4.63
2022-09-15T01:03:23.329Z,3.28
2022-09-15T01:05:54.331Z,5.50
2022-09-15T01:08:50.341Z,5.78
2022-09-15T01:11:16.939Z,5.45
2022-09-15T01:13:44.026Z,6.35
2022-09-15T01:16:12.975Z,6.13
2022-09-15T01:19:06.906Z,5.72
2022-09-15T01:21:33.126Z,5.88
2022-09-15T01:24:30.308Z,5.45
2022-09-15T01:27:09.773Z,4.93
2022-09-15T01:30:07.039Z,6.13
2022-09-15T01:33:13.592Z,6.45
2022-09-15T01:36:01.694Z,5.88
2022-09-15T01:38:35.071Z,5.35
2022-09-15T01:41:17.490Z,5.68
2022-09-15T01:43:49.396Z,4.40
2022-09-15T01:46:17.453Z,4.93
2022-09-15T01:48:45.066Z,3.78
2022-09-15T01:51:11.714Z,3.80
2022-09-15T01:53:38.138Z,4.85
2022-09-15T01:56:10.150Z,5.22
2022-09-15T01:58:38.347Z,3.90
2022-09-15T02:01:12.943Z,3.85
2022-09-15T02:03:44.631Z,2.80
2022-09-15T02:06:21.460Z,3.55
2022-09-15T02:08:54.577Z,2.70
2022-09-15T02:11:28.975Z,2.88
2022-09-15T02:14:09.570Z,2.53
2022-09-15T02:16:36.453Z,2.20
2022-09-15T02:19:12.520Z,1.98
2022-09-15T02:21:53.789Z,1.63
2022-09-15T02:24:26.327Z,1.67
2022-09-15T02:26:54.999Z,2.10
2022-09-15T02:29:22.579Z,1.80
2022-09-15T02:31:50.596Z,1.67
2022-09-15T02:34:24.578Z,1.13
2022-09-15T02:36:53.049Z,1.25
2022-09-15T02:39:22.794Z,1.15
2022-09-15T02:41:49.267Z,1.30
2022-09-15T02:44:15.646Z,1.55
2022-09-15T02:46:42.017Z,1.60
2022-09-15T02:49:08.343Z,1.95
2022-09-15T02:51:34.706Z,2.05
2022-09-15T02:54:01.197Z,2.05
2022-09-15T02:56:27.533Z,1.83
2022-09-15T02:58:54.019Z,1.80
2022-09-15T03:01:20.603Z,2.33
2022-09-15T03:03:47.010Z,2.90
2022-09-15T03:06:16.900Z,3.50
2022-09-15T03:08:58.243Z,3.10
2022-09-15T03:11:26.721Z,3.50
2022-09-15T03:13:54.941Z,4.22
2022-09-15T03:16:21.733Z,3.80
2022-09-15T03:18:48.321Z,3.92
2022-09-15T03:21:16.046Z,4.60
2022-09-15T03:23:42.566Z,4.60
2022-09-15T03:26:09.441Z,4.78
2022-09-15T03:28:37.080Z,4.72
2022-09-15T03:31:04.385Z,5.35
2022-09-15T03:33:31.147Z,4.45
2022-09-15T03:35:58.217Z,4.95
2022-09-15T03:38:24.942Z,5.50
2022-09-15T03:41:01.973Z,4.20
2022-09-15T03:43:29.463Z,5.07
2022-09-15T03:45:56.874Z,4.07
2022-09-15T03:48:24.246Z,5.15
2022-09-15T03:50:50.997Z,6.03
2022-09-15T03:53:17.753Z,5.07
2022-09-15T03:55:45.361Z,6.22
2022-09-15T03:58:12.724Z,5.28
2022-09-15T04:00:40.623Z,5.88
2022-09-15T04:03:07.153Z,6.80
2022-09-15T04:05:34.094Z,6.55
2022-09-15T04:08:00.561Z,6.50
2022-09-15T04:10:27.003Z,4.68
2022-09-15T04:12:53.794Z,4.57
2022-09-15T04:15:20.715Z,4.05
2022-09-15T04:17:47.622Z,3.53
2022-09-15T04:20:14.482Z,4.25
2022-09-15T04:22:40.890Z,6.15
2022-09-15T04:25:09.164Z,5.57
2022-09-15T04:27:36.255Z,6.05
2022-09-15T04:30:02.613Z,4.60
2022-09-15T04:32:29.642Z,4.65
2022-09-15T04:34:55.983Z,4.47
2022-09-15T04:37:22.693Z,2.97
2022-09-15T04:39:49.105Z,4.10
2022-09-15T04:42:15.657Z,3.97
2022-09-15T04:44:42.062Z,3.38
2022-09-15T04:47:08.377Z,3.53
2022-09-15T04:49:34.707Z,3.47
2022-09-15T04:52:01.120Z,2.97
2022-09-15T04:54:27.434Z,2.05
2022-09-15T04:56:53.774Z,1.80
2022-09-15T04:59:20.146Z,2.10
2022-09-15T05:01:47.421Z,2.20
2022-09-15T05:04:13.833Z,2.30
2022-09-15T05:06:40.219Z,2.67
2022-09-15T05:09:10.409Z,2.60
2022-09-15T05:11:37.468Z,2.72
2022-09-15T05:14:03.922Z,2.83
2022-09-15T05:16:31.208Z,3.00
2022-09-15T05:19:00.122Z,2.67
2022-09-15T05:21:27.514Z,3.10
2022-09-15T05:23:54.086Z,3.22
2022-09-15T05:26:22.998Z,3.08
2022-09-15T05:28:50.003Z,3.10
2022-09-15T05:31:21.441Z,2.92
2022-09-15T05:33:49.424Z,3.25
2022-09-15T05:36:17.257Z,3.78
2022-09-15T05:38:44.067Z,3.40
2022-09-15T05:41:18.632Z,3.50
2022-09-15T05:43:46.609Z,2.92
2022-09-15T05:46:14.123Z,2.83
2022-09-15T05:48:40.494Z,2.60
2022-09-15T05:51:07.296Z,3.53
2022-09-15T05:53:35.011Z,3.10
2022-09-15T05:56:04.102Z,2.95
2022-09-15T05:58:31.561Z,3.05
2022-09-15T06:01:03.947Z,3.22
2022-09-15T06:03:31.210Z,3.33
2022-09-15T06:06:01.839Z,3.83
2022-09-15T06:08:35.930Z,2.92
2022-09-15T06:11:04.539Z,3.33
2022-09-15T06:13:30.980Z,3.28
2022-09-15T06:16:01.847Z,3.00
2022-09-15T06:18:28.244Z,2.72
2022-09-15T06:20:54.596Z,2.50
2022-09-15T06:23:20.942Z,2.42
2022-09-15T06:25:47.318Z,2.40
2022-09-15T06:28:13.888Z,2.78
2022-09-15T06:30:40.289Z,2.70
2022-09-15T06:33:06.767Z,2.15
2022-09-15T06:35:33.164Z,2.20
2022-09-15T06:37:59.526Z,2.05
2022-09-15T06:40:25.938Z,3.08
2022-09-15T06:42:55.871Z,2.53
2022-09-15T06:45:22.243Z,2.80
2022-09-15T06:48:02.069Z,2.33
2022-09-15T06:50:35.190Z,2.03
2022-09-15T06:53:01.584Z,1.58
2022-09-15T06:55:28.265Z,1.50
2022-09-15T06:57:54.643Z,2.10
2022-09-15T07:00:20.997Z,1.70
2022-09-15T07:02:50.688Z,1.92
2022-09-15T07:05:17.393Z,2.30
2022-09-15T07:07:43.892Z,2.08
2022-09-15T07:10:10.232Z,1.80
2022-09-15T07:12:37.112Z,1.50
2022-09-15T07:15:03.719Z,2.05
2022-09-15T07:17:30.138Z,1.70
2022-09-15T07:19:56.542Z,1.65
2022-09-15T07:22:24.464Z,2.10
2022-09-15T07:24:50.875Z,2.00
2022-09-15T07:27:17.254Z,1.95
2022-09-15T07:29:43.774Z,2.05
2022-09-15T07:32:10.212Z,2.15
2022-09-15T07:34:36.571Z,1.88
2022-09-15T07:37:02.995Z,2.10
2022-09-15T07:39:29.349Z,2.05
2022-09-15T07:41:55.719Z,1.83
2022-09-15T07:44:22.084Z,1.70
2022-09-15T07:46:48.415Z,1.83
2022-09-15T07:49:14.769Z,1.98
2022-09-15T07:51:41.155Z,2.05
2022-09-15T07:54:07.503Z,2.30
2022-09-15T07:56:33.881Z,1.40
2022-09-15T07:59:00.261Z,1.42
2022-09-15T08:01:26.629Z,1.45
2022-09-15T08:03:53.144Z,1.48
2022-09-15T08:06:21.916Z,1.65
2022-09-15T08:08:50.098Z,1.60
2022-09-15T08:11:20.738Z,1.83
2022-09-15T08:13:49.246Z,1.42
2022-09-15T08:16:18.370Z,1.88
2022-09-15T08:18:45.140Z,1.50
2022-09-15T08:21:14.433Z,1.50
2022-09-15T08:23:40.984Z,1.85
2022-09-15T08:26:14.094Z,2.15
2022-09-15T08:28:41.907Z,2.22
2022-09-15T08:31:09.963Z,2.03
2022-09-15T08:33:36.508Z,2.72
2022-09-15T08:36:08.013Z,3.10
2022-09-15T08:38:34.474Z,2.88
2022-09-15T08:41:05.083Z,3.30
2022-09-15T08:43:37.021Z,3.67
2022-09-15T08:46:06.474Z,3.50
2022-09-15T08:48:43.874Z,3.83
2022-09-15T08:51:16.076Z,3.95
2022-09-15T08:53:46.195Z,3.58
2022-09-15T08:56:17.608Z,4.25
2022-09-15T08:58:45.961Z,3.90
2022-09-15T09:01:25.703Z,3.97
2022-09-15T09:04:22.990Z,3.55
2022-09-15T09:07:04.600Z,3.28
2022-09-15T09:09:43.742Z,2.55
2022-09-15T09:12:41.147Z,3.42
2022-09-15T09:15:26.946Z,2.85
2022-09-15T09:18:38.226Z,2.92
2022-09-15T09:21:26.993Z,2.92
2022-09-15T09:24:01.770Z,2.63
2022-09-15T09:26:31.111Z,2.45
2022-09-15T09:29:02.491Z,2.72
2022-09-15T09:31:28.934Z,3.70
2022-09-15T09:34:05.615Z,3.80
2022-09-15T09:36:33.232Z,4.18
2022-09-15T09:39:01.981Z,4.15
2022-09-15T09:41:35.541Z,4.32
2022-09-15T09:44:07.130Z,4.43
2022-09-15T09:46:34.346Z,4.57
2022-09-15T09:49:10.379Z,5.38
2022-09-15T09:51:55.762Z,5.25
2022-09-15T09:54:27.186Z,5.35
2022-09-15T09:56:55.396Z,4.47
2022-09-15T09:59:54.217Z,4.80
2022-09-15T10:02:28.065Z,4.40
2022-09-15T10:04:56.456Z,4.80
2022-09-15T10:07:25.925Z,5.18
2022-09-15T10:09:55.532Z,4.50
2022-09-15T10:12:25.201Z,5.07
2022-09-15T10:14:54.152Z,4.57
2022-09-15T10:17:35.881Z,5.70
2022-09-15T10:20:04.975Z,5.35
2022-09-15T10:22:38.964Z,5.75
2022-09-15T10:25:20.393Z,5.25
2022-09-15T10:28:08.680Z,5.55
2022-09-15T10:30:38.318Z,5.63
2022-09-15T10:33:26.414Z,5.63
2022-09-15T10:35:54.747Z,6.10
2022-09-15T10:38:31.536Z,5.82
2022-09-15T10:41:12.459Z,5.30
2022-09-15T10:44:04.497Z,5.90
2022-09-15T10:47:06.215Z,6.78
2022-09-15T10:49:32.736Z,7.22
2022-09-15T10:52:16.125Z,7.30
2022-09-15T10:54:53.810Z,7.22
2022-09-15T10:57:43.417Z,7.07
2022-09-15T11:00:12.632Z,7.28
2022-09-15T11:03:06.683Z,6.88
2022-09-15T11:05:53.235Z,7.73
2022-09-15T11:08:56.132Z,8.35
2022-09-15T11:11:48.715Z,8.13
2022-09-15T11:14:52.871Z,8.80
2022-09-15T11:17:40.748Z,8.18
2022-09-15T11:20:25.241Z,7.50
2022-09-15T11:22:51.619Z,8.02
2022-09-15T11:25:24.384Z,7.28
2022-09-15T11:27:54.245Z,7.00
2022-09-15T11:30:23.508Z,6.80
2022-09-15T11:32:59.006Z,7.63
2022-09-15T11:35:39.013Z,7.63
2022-09-15T11:38:29.249Z,8.80
2022-09-15T11:41:01.807Z,7.82
2022-09-15T11:43:36.122Z,7.60
2022-09-15T11:49:09.329Z,7.40
2022-09-15T11:51:41.611Z,6.75
2022-09-15T11:54:16.069Z,6.97
2022-09-15T11:56:45.203Z,4.82
2022-09-15T11:59:17.466Z,5.10
2022-09-15T12:01:50.558Z,5.97
2022-09-15T12:04:23.647Z,5.50
2022-09-15T12:07:08.805Z,6.10
2022-09-15T12:09:38.711Z,5.82
2022-09-15T12:12:13.389Z,5.43
2022-09-15T12:14:45.325Z,5.25
2022-09-15T12:17:23.572Z,5.57
2022-09-15T12:20:04.256Z,5.68
2022-09-15T12:22:37.122Z,5.32
2022-09-15T12:25:14.907Z,5.80
2022-09-15T12:27:41.264Z,5.55
2022-09-15T12:30:41.025Z,5.85
2022-09-15T12:33:42.262Z,5.28
2022-09-15T12:36:39.423Z,5.65
2022-09-15T12:39:39.796Z,5.72
2022-09-15T12:42:21.226Z,6.00
2022-09-15T12:44:50.351Z,6.72
2022-09-15T12:47:42.198Z,6.13
2022-09-15T12:50:22.930Z,6.00
2022-09-15T12:52:55.093Z,5.90
2022-09-15T12:55:27.401Z,5.40
2022-09-15T12:58:06.602Z,4.97
2022-09-15T13:00:35.767Z,4.72
2022-09-15T13:03:03.641Z,4.80
2022-09-15T13:05:41.898Z,4.55
2022-09-15T13:08:12.466Z,4.70
2022-09-15T13:10:42.090Z,4.65
2022-09-15T13:13:29.995Z,4.88
2022-09-15T13:16:01.130Z,4.22
2022-09-15T13:18:29.939Z,4.15
2022-09-15T13:21:05.268Z,4.80
2022-09-15T13:23:36.727Z,4.03
2022-09-15T13:26:06.040Z,3.97
2022-09-15T13:28:32.677Z,3.97
2022-09-15T13:31:29.819Z,4.07
2022-09-15T13:40:48.224Z,4.45
2022-09-15T13:43:41.004Z,3.85
2022-09-15T13:46:38.427Z,3.85
2022-09-15T13:49:15.758Z,4.00
2022-09-15T13:51:43.836Z,3.92
2022-09-15T13:54:18.863Z,3.85
2022-09-15T13:56:47.264Z,4.18
2022-09-15T13:59:19.000Z,3.60
2022-09-15T14:01:45.955Z,3.47
2022-09-15T14:04:16.694Z,3.28
2022-09-15T14:06:48.176Z,3.17
2022-09-15T14:09:21.353Z,3.45
2022-09-15T14:11:49.047Z,3.20
2022-09-15T14:14:27.822Z,3.13
2022-09-15T14:16:56.110Z,3.85
2022-09-15T14:19:35.346Z,3.00
2022-09-15T14:22:18.425Z,2.85
2022-09-15T14:24:45.155Z,3.47
2022-09-15T14:27:12.896Z,3.03
2022-09-15T14:29:40.851Z,3.50
2022-09-15T14:32:12.194Z,3.17
2022-09-15T14:34:38.703Z,2.70
2022-09-15T14:37:08.093Z,3.80
2022-09-15T14:39:37.257Z,3.10
2022-09-15T14:42:26.069Z,3.60
2022-09-15T14:47:43.057Z,3.00
2022-09-15T14:50:16.645Z,3.33
2022-09-15T14:52:47.024Z,3.25
2022-09-15T14:55:29.547Z,2.97
2022-09-15T14:58:02.981Z,3.20
2022-09-15T15:00:34.521Z,3.37
2022-09-15T15:03:14.876Z,3.45
2022-09-15T15:06:29.344Z,2.97
2022-09-15T15:09:05.578Z,2.90
2022-09-15T15:11:33.367Z,3.13
2022-09-15T15:14:00.433Z,2.67
2022-09-15T15:16:30.623Z,2.80
2022-09-15T15:18:57.827Z,3.17
2022-09-15T15:21:41.754Z,3.05
2022-09-15T15:24:10.861Z,3.30
2022-09-15T15:26:39.039Z,3.28
2022-09-15T15:29:36.908Z,3.20
2022-09-15T15:32:05.145Z,3.30
2022-09-15T15:34:31.568Z,3.55
2022-09-15T15:37:17.083Z,3.10
2022-09-15T15:39:45.763Z,2.53
2022-09-15T15:42:15.233Z,2.90
2022-09-15T15:45:13.365Z,2.75
2022-09-15T15:47:39.717Z,2.25
2022-09-15T15:50:15.304Z,2.38
2022-09-15T15:52:42.309Z,2.58
2022-09-15T15:55:13.057Z,2.78
2022-09-15T15:57:39.785Z,2.47
2022-09-15T16:00:21.361Z,2.30
2022-09-15T16:02:48.879Z,2.38
2022-09-15T16:05:15.552Z,2.58
2022-09-15T16:07:42.595Z,2.40
2022-09-15T16:10:14.794Z,1.95
2022-09-15T16:12:41.122Z,2.08
2022-09-15T16:15:13.073Z,2.20
2022-09-15T16:17:44.333Z,2.13
2022-09-15T16:20:15.727Z,2.00
2022-09-15T16:22:42.278Z,2.45
2022-09-15T16:25:18.111Z,2.05
2022-09-15T16:27:44.478Z,2.30
2022-09-15T16:30:13.637Z,2.20
2022-09-15T16:32:40.607Z,2.22
2022-09-15T16:35:21.814Z,2.40
2022-09-15T16:37:48.158Z,2.22
2022-09-15T16:40:14.685Z,2.00
2022-09-15T16:42:41.041Z,2.03
2022-09-15T16:45:17.897Z,1.70
2022-09-15T16:47:44.900Z,2.42
2022-09-15T16:50:11.696Z,2.42
2022-09-15T16:52:38.341Z,2.22
2022-09-15T16:55:31.148Z,2.25
2022-09-15T16:57:57.789Z,2.10
2022-09-15T17:00:24.207Z,2.40
2022-09-15T17:02:50.630Z,2.03
2022-09-15T17:05:27.597Z,1.92
2022-09-15T17:07:54.006Z,2.13
2022-09-15T17:10:20.786Z,2.10
2022-09-15T17:12:47.127Z,2.30
2022-09-15T17:15:21.854Z,2.35
2022-09-15T17:17:48.249Z,2.63
2022-09-15T17:20:15.387Z,2.22
2022-09-15T17:22:41.808Z,2.30
2022-09-15T17:25:25.541Z,2.40
2022-09-15T17:27:52.477Z,2.67
2022-09-15T17:30:20.177Z,2.33
2022-09-15T17:32:46.942Z,2.55
2022-09-15T17:35:17.790Z,2.22
2022-09-15T17:37:44.130Z,2.75
2022-09-15T17:40:11.736Z,2.13
2022-09-15T17:42:38.099Z,2.20
2022-09-15T17:45:34.229Z,2.30
2022-09-15T17:48:01.301Z,2.50
2022-09-15T17:50:29.274Z,2.10
2022-09-15T17:52:55.997Z,2.15
2022-09-15T17:55:33.349Z,2.15
2022-09-15T17:58:01.254Z,2.35
2022-09-15T18:00:31.931Z,2.22
2022-09-15T18:02:59.909Z,2.35
2022-09-15T18:05:31.141Z,2.20
2022-09-15T18:07:59.623Z,2.53
2022-09-15T18:10:28.021Z,2.67
2022-09-15T18:12:55.737Z,2.25
2022-09-15T18:15:25.833Z,2.20
2022-09-15T18:17:54.507Z,2.92
2022-09-15T18:20:23.037Z,2.20
2022-09-15T18:22:49.953Z,2.67
2022-09-15T18:25:17.851Z,2.25
2022-09-15T18:27:44.291Z,2.15
2022-09-15T18:30:11.575Z,2.65
2022-09-15T18:32:37.876Z,2.50
2022-09-15T18:35:04.348Z,2.28
2022-09-15T18:37:30.659Z,2.47
2022-09-15T18:39:57.046Z,2.10
2022-09-15T18:42:26.206Z,1.88
2022-09-15T18:44:54.837Z,2.15
2022-09-15T18:47:22.417Z,2.25
2022-09-15T18:49:48.725Z,2.17
2022-09-15T18:52:15.054Z,2.10
2022-09-15T18:54:43.313Z,1.75
2022-09-15T18:57:09.693Z,1.80
2022-09-15T18:59:36.008Z,1.85
2022-09-15T19:02:02.606Z,2.05
2022-09-15T19:04:32.251Z,2.08
2022-09-15T19:07:00.506Z,1.77
2022-09-15T19:09:26.884Z,1.90
2022-09-15T19:11:53.211Z,1.75
2022-09-15T19:14:19.553Z,2.08
2022-09-15T19:16:57.682Z,2.58
2022-09-15T19:19:25.090Z,2.08
2022-09-15T19:21:51.415Z,2.28
2022-09-15T19:24:17.938Z,2.40
2022-09-15T19:26:46.635Z,2.20
2022-09-15T19:29:13.923Z,2.50
2022-09-15T19:31:42.178Z,2.22
2022-09-15T19:34:08.801Z,1.83
2022-09-15T19:36:35.237Z,2.10
2022-09-15T19:39:03.371Z,2.20
2022-09-15T19:41:31.211Z,2.28
2022-09-15T19:44:00.848Z,1.83
2022-09-15T19:46:27.241Z,1.52
2022-09-15T19:48:53.756Z,1.90
2022-09-15T19:51:20.537Z,2.03
2022-09-15T19:53:47.357Z,1.80
2022-09-15T19:56:18.690Z,1.98
2022-09-15T19:58:46.029Z,1.75
2022-09-15T20:01:12.429Z,1.50
2022-09-15T20:03:40.347Z,1.90
2022-09-15T20:06:08.685Z,1.80
2022-09-15T20:08:35.997Z,1.67
2022-09-15T20:11:09.699Z,1.90
2022-09-15T20:13:40.915Z,1.92
2022-09-15T20:16:08.219Z,1.58
2022-09-15T20:18:38.996Z,1.85
2022-09-15T20:21:07.473Z,2.03
2022-09-15T20:23:34.146Z,1.65
2022-09-15T20:26:03.367Z,1.90
2022-09-15T20:28:29.874Z,2.08
2022-09-15T20:31:08.473Z,1.65
2022-09-15T20:33:36.489Z,2.17
2022-09-15T20:36:05.822Z,2.00
2022-09-15T20:38:33.821Z,1.90
2022-09-15T20:41:00.353Z,2.03
2022-09-15T20:43:27.058Z,1.63
2022-09-15T20:46:01.753Z,1.98
2022-09-15T20:48:30.238Z,2.17
2022-09-15T20:51:03.726Z,1.85
2022-09-15T20:53:30.411Z,1.90
2022-09-15T20:55:56.813Z,1.77
2022-09-15T20:58:25.410Z,1.95
2022-09-15T21:00:52.593Z,1.92
2022-09-15T21:03:19.528Z,1.80
2022-09-15T21:05:45.906Z,2.00
2022-09-15T21:08:12.894Z,2.42
2022-09-15T21:10:43.043Z,2.20
2022-09-15T21:13:09.359Z,2.30
2022-09-15T21:15:35.659Z,1.85
2022-09-15T21:18:02.109Z,1.70
2022-09-15T21:20:28.847Z,2.42
2022-09-15T21:22:55.803Z,1.83
2022-09-15T21:25:23.056Z,2.10
2022-09-15T21:27:50.212Z,1.90
2022-09-15T21:30:17.227Z,2.00
2022-09-15T21:32:43.571Z,1.80
2022-09-15T21:35:09.892Z,1.98
2022-09-15T21:37:36.220Z,1.90
2022-09-15T21:40:04.058Z,2.03
2022-09-15T21:42:30.489Z,2.15
2022-09-15T21:44:56.878Z,1.92
2022-09-15T21:47:23.377Z,1.98
2022-09-15T21:49:51.784Z,1.95
2022-09-15T21:52:18.151Z,1.80
2022-09-15T21:54:44.674Z,1.77
2022-09-15T21:57:11.017Z,1.88
2022-09-15T21:59:37.364Z,2.10
2022-09-15T22:02:03.935Z,1.63
2022-09-15T22:04:30.431Z,1.80
2022-09-15T22:06:56.744Z,2.20
2022-09-15T22:09:23.096Z,2.20
2022-09-15T22:11:49.443Z,1.85
2022-09-15T22:14:16.001Z,1.50
2022-09-15T22:16:42.781Z,2.28
2022-09-15T22:19:10.942Z,2.03
2022-09-15T22:21:41.373Z,2.00
2022-09-15T22:24:10.080Z,1.52
2022-09-15T22:26:37.484Z,1.60
2022-09-15T22:29:06.379Z,1.73
2022-09-15T22:31:33.279Z,2.50
2022-09-15T22:33:59.616Z,1.48
2022-09-15T22:36:29.652Z,1.80
2022-09-15T22:39:03.531Z,2.10
2022-09-15T22:41:31.103Z,1.73
2022-09-15T22:43:57.473Z,1.88
2022-09-15T22:46:23.799Z,1.75
2022-09-15T22:48:50.115Z,1.80
2022-09-15T22:51:17.236Z,1.88
2022-09-15T22:53:43.749Z,1.75
2022-09-15T22:56:25.918Z,1.85
2022-09-15T22:58:52.819Z,1.98
2022-09-15T23:01:21.201Z,1.85
2022-09-15T23:03:51.493Z,1.85
2022-09-15T23:06:18.036Z,1.60
2022-09-15T23:08:44.540Z,1.88
2022-09-15T23:11:12.787Z,2.03
2022-09-15T23:13:39.770Z,1.55
2022-09-15T23:16:07.135Z,1.90
2022-09-15T23:18:34.641Z,1.80
2022-09-15T23:21:04.955Z,2.00
2022-09-15T23:23:31.271Z,1.67
2022-09-15T23:25:57.651Z,1.70
2022-09-15T23:28:24.584Z,1.67
2022-09-15T23:30:52.886Z,1.73
2022-09-15T23:33:19.646Z,1.55
2022-09-15T23:35:46.544Z,1.50
2022-09-15T23:38:13.162Z,1.63
2022-09-15T23:40:42.866Z,1.98
2022-09-15T23:43:12.540Z,1.40
2022-09-15T23:45:38.923Z,1.60
2022-09-15T23:48:06.296Z,1.40
2022-09-15T23:50:32.773Z,1.65
2022-09-15T23:52:59.091Z,1.73
2022-09-15T23:55:25.683Z,1.60
2022-09-15T23:57:52.276Z,1.85
